sensor_id;sensor_type;location;lat;lon;timestamp;P1;durP1;ratioP1;P2;durP2;ratioP2
65558;SDS011;52203;51.998;5.140;2023-07-20T00:01:28;11.75;;;6.60;;
65558;SDS011;52203;51.998;5.140;2023-07-20T00:03:54;10.13;;;6.88;;
65558;SDS011;52203;51.998;5.140;2023-07-20T00:06:23;12.07;;;6.97;;
65558;SDS011;52203;51.998;5.140;2023-07-20T00:08:50;9.73;;;6.85;;
65558;SDS011;52203;51.998;5.140;2023-07-20T00:11:16;10.88;;;6.20;;
65558;SDS011;52203;51.998;5.140;2023-07-20T00:13:41;12.00;;;6.35;;
65558;SDS011;52203;51.998;5.140;2023-07-20T00:16:07;11.95;;;6.13;;
65558;SDS011;52203;51.998;5.140;2023-07-20T00:18:33;12.77;;;6.30;;
65558;SDS011;52203;51.998;5.140;2023-07-20T00:20:58;9.15;;;5.80;;
65558;SDS011;52203;51.998;5.140;2023-07-20T00:23:27;10.82;;;6.43;;
65558;SDS011;52203;51.998;5.140;2023-07-20T00:25:52;8.80;;;5.57;;
65558;SDS011;52203;51.998;5.140;2023-07-20T00:28:18;10.70;;;6.28;;
65558;SDS011;52203;51.998;5.140;2023-07-20T00:30:44;10.18;;;6.15;;
65558;SDS011;52203;51.998;5.140;2023-07-20T00:33:10;9.52;;;5.53;;
65558;SDS011;52203;51.998;5.140;2023-07-20T00:35:36;7.75;;;4.70;;
65558;SDS011;52203;51.998;5.140;2023-07-20T00:38:03;7.80;;;5.40;;
65558;SDS011;52203;51.998;5.140;2023-07-20T00:40:28;8.48;;;5.07;;
65558;SDS011;52203;51.998;5.140;2023-07-20T00:43:00;10.88;;;5.25;;
65558;SDS011;52203;51.998;5.140;2023-07-20T00:45:25;7.72;;;4.95;;
65558;SDS011;52203;51.998;5.140;2023-07-20T00:47:51;8.50;;;5.25;;
65558;SDS011;52203;51.998;5.140;2023-07-20T00:50:17;8.32;;;5.32;;
65558;SDS011;52203;51.998;5.140;2023-07-20T00:52:43;8.60;;;4.80;;
65558;SDS011;52203;51.998;5.140;2023-07-20T00:55:09;10.00;;;5.03;;
65558;SDS011;52203;51.998;5.140;2023-07-20T00:57:35;7.72;;;4.65;;
65558;SDS011;52203;51.998;5.140;2023-07-20T01:00:00;7.68;;;4.72;;
65558;SDS011;52203;51.998;5.140;2023-07-20T01:02:26;6.60;;;4.25;;
65558;SDS011;52203;51.998;5.140;2023-07-20T01:04:52;8.63;;;4.45;;
65558;SDS011;52203;51.998;5.140;2023-07-20T01:07:37;7.68;;;4.38;;
65558;SDS011;52203;51.998;5.140;2023-07-20T01:12:42;7.05;;;4.18;;
65558;SDS011;52203;51.998;5.140;2023-07-20T01:15:08;7.07;;;4.10;;
65558;SDS011;52203;51.998;5.140;2023-07-20T01:17:35;6.15;;;4.10;;
65558;SDS011;52203;51.998;5.140;2023-07-20T01:20:01;5.53;;;4.03;;
65558;SDS011;52203;51.998;5.140;2023-07-20T01:22:48;7.70;;;4.05;;
65558;SDS011;52203;51.998;5.140;2023-07-20T01:30:46;7.20;;;3.47;;
65558;SDS011;52203;51.998;5.140;2023-07-20T01:33:20;7.28;;;3.63;;
65558;SDS011;52203;51.998;5.140;2023-07-20T01:35:55;5.68;;;3.50;;
65558;SDS011;52203;51.998;5.140;2023-07-20T01:38:22;6.10;;;3.92;;
65558;SDS011;52203;51.998;5.140;2023-07-20T01:40:49;6.00;;;3.40;;
65558;SDS011;52203;51.998;5.140;2023-07-20T01:43:15;5.20;;;3.08;;
65558;SDS011;52203;51.998;5.140;2023-07-20T01:45:41;5.55;;;3.55;;
65558;SDS011;52203;51.998;5.140;2023-07-20T01:48:07;5.10;;;3.47;;
65558;SDS011;52203;51.998;5.140;2023-07-20T01:50:32;5.55;;;3.63;;
65558;SDS011;52203;51.998;5.140;2023-07-20T01:52:59;7.57;;;4.05;;
65558;SDS011;52203;51.998;5.140;2023-07-20T01:55:25;6.85;;;3.72;;
65558;SDS011;52203;51.998;5.140;2023-07-20T01:57:51;5.28;;;3.80;;
65558;SDS011;52203;51.998;5.140;2023-07-20T02:00:16;6.72;;;4.00;;
65558;SDS011;52203;51.998;5.140;2023-07-20T02:02:44;5.25;;;3.60;;
65558;SDS011;52203;51.998;5.140;2023-07-20T02:05:09;7.40;;;3.60;;
65558;SDS011;52203;51.998;5.140;2023-07-20T02:07:35;4.03;;;2.88;;
65558;SDS011;52203;51.998;5.140;2023-07-20T02:10:00;5.70;;;3.60;;
65558;SDS011;52203;51.998;5.140;2023-07-20T02:12:26;4.70;;;3.22;;
65558;SDS011;52203;51.998;5.140;2023-07-20T02:14:51;5.55;;;3.50;;
65558;SDS011;52203;51.998;5.140;2023-07-20T02:17:18;6.30;;;3.33;;
65558;SDS011;52203;51.998;5.140;2023-07-20T02:19:43;4.90;;;3.08;;
65558;SDS011;52203;51.998;5.140;2023-07-20T02:22:09;5.82;;;3.55;;
65558;SDS011;52203;51.998;5.140;2023-07-20T02:24:35;5.30;;;3.42;;
65558;SDS011;52203;51.998;5.140;2023-07-20T02:27:00;4.85;;;3.28;;
65558;SDS011;52203;51.998;5.140;2023-07-20T02:29:26;5.28;;;3.28;;
65558;SDS011;52203;51.998;5.140;2023-07-20T02:31:51;6.65;;;3.55;;
65558;SDS011;52203;51.998;5.140;2023-07-20T02:34:17;6.38;;;3.50;;
65558;SDS011;52203;51.998;5.140;2023-07-20T02:36:42;5.65;;;3.38;;
65558;SDS011;52203;51.998;5.140;2023-07-20T02:39:08;6.18;;;3.50;;
65558;SDS011;52203;51.998;5.140;2023-07-20T02:41:34;7.07;;;3.95;;
65558;SDS011;52203;51.998;5.140;2023-07-20T02:43:59;8.00;;;3.67;;
65558;SDS011;52203;51.998;5.140;2023-07-20T02:46:26;6.82;;;3.83;;
65558;SDS011;52203;51.998;5.140;2023-07-20T02:48:51;4.88;;;3.20;;
65558;SDS011;52203;51.998;5.140;2023-07-20T02:51:17;5.82;;;3.58;;
65558;SDS011;52203;51.998;5.140;2023-07-20T02:53:42;6.35;;;3.53;;
65558;SDS011;52203;51.998;5.140;2023-07-20T02:56:08;5.30;;;3.35;;
65558;SDS011;52203;51.998;5.140;2023-07-20T02:58:34;5.85;;;3.60;;
65558;SDS011;52203;51.998;5.140;2023-07-20T03:01:02;6.45;;;3.35;;
65558;SDS011;52203;51.998;5.140;2023-07-20T03:03:28;6.20;;;3.35;;
65558;SDS011;52203;51.998;5.140;2023-07-20T03:05:53;6.10;;;3.67;;
65558;SDS011;52203;51.998;5.140;2023-07-20T03:08:21;11.80;;;6.35;;
65558;SDS011;52203;51.998;5.140;2023-07-20T03:10:46;7.43;;;3.75;;
65558;SDS011;52203;51.998;5.140;2023-07-20T03:13:12;7.53;;;4.30;;
65558;SDS011;52203;51.998;5.140;2023-07-20T03:15:39;6.53;;;4.03;;
65558;SDS011;52203;51.998;5.140;2023-07-20T03:18:04;7.85;;;4.45;;
65558;SDS011;52203;51.998;5.140;2023-07-20T03:20:30;7.05;;;3.88;;
65558;SDS011;52203;51.998;5.140;2023-07-20T03:22:56;8.63;;;4.93;;
65558;SDS011;52203;51.998;5.140;2023-07-20T03:25:22;8.60;;;4.80;;
65558;SDS011;52203;51.998;5.140;2023-07-20T03:27:49;7.35;;;4.57;;
65558;SDS011;52203;51.998;5.140;2023-07-20T03:30:15;7.97;;;4.68;;
65558;SDS011;52203;51.998;5.140;2023-07-20T03:32:40;7.75;;;5.00;;
65558;SDS011;52203;51.998;5.140;2023-07-20T03:35:06;8.27;;;4.95;;
65558;SDS011;52203;51.998;5.140;2023-07-20T03:37:32;10.82;;;5.45;;
65558;SDS011;52203;51.998;5.140;2023-07-20T03:39:59;9.98;;;5.13;;
65558;SDS011;52203;51.998;5.140;2023-07-20T03:42:25;9.65;;;5.18;;
65558;SDS011;52203;51.998;5.140;2023-07-20T03:44:50;8.90;;;5.18;;
65558;SDS011;52203;51.998;5.140;2023-07-20T03:47:16;8.55;;;5.43;;
65558;SDS011;52203;51.998;5.140;2023-07-20T03:49:42;12.80;;;6.45;;
65558;SDS011;52203;51.998;5.140;2023-07-20T03:52:07;9.43;;;5.88;;
65558;SDS011;52203;51.998;5.140;2023-07-20T03:54:33;12.45;;;5.78;;
65558;SDS011;52203;51.998;5.140;2023-07-20T03:56:58;11.93;;;5.97;;
65558;SDS011;52203;51.998;5.140;2023-07-20T03:59:25;10.07;;;5.70;;
65558;SDS011;52203;51.998;5.140;2023-07-20T04:01:51;11.13;;;6.38;;
65558;SDS011;52203;51.998;5.140;2023-07-20T04:04:17;12.00;;;6.70;;
65558;SDS011;52203;51.998;5.140;2023-07-20T04:06:42;12.40;;;6.88;;
65558;SDS011;52203;51.998;5.140;2023-07-20T04:09:11;11.85;;;7.03;;
65558;SDS011;52203;51.998;5.140;2023-07-20T04:11:37;12.55;;;6.50;;
65558;SDS011;52203;51.998;5.140;2023-07-20T04:14:03;12.38;;;6.60;;
65558;SDS011;52203;51.998;5.140;2023-07-20T04:16:29;11.88;;;6.03;;
65558;SDS011;52203;51.998;5.140;2023-07-20T04:18:55;11.57;;;6.80;;
65558;SDS011;52203;51.998;5.140;2023-07-20T04:21:21;12.35;;;6.90;;
65558;SDS011;52203;51.998;5.140;2023-07-20T04:23:46;10.90;;;6.85;;
65558;SDS011;52203;51.998;5.140;2023-07-20T04:26:12;12.52;;;6.53;;
65558;SDS011;52203;51.998;5.140;2023-07-20T04:28:39;10.75;;;6.50;;
65558;SDS011;52203;51.998;5.140;2023-07-20T04:31:13;10.05;;;5.75;;
65558;SDS011;52203;51.998;5.140;2023-07-20T04:33:40;10.75;;;5.80;;
65558;SDS011;52203;51.998;5.140;2023-07-20T04:36:06;10.40;;;6.53;;
65558;SDS011;52203;51.998;5.140;2023-07-20T04:38:32;10.48;;;5.80;;
65558;SDS011;52203;51.998;5.140;2023-07-20T04:40:58;10.38;;;6.13;;
65558;SDS011;52203;51.998;5.140;2023-07-20T04:43:23;10.65;;;6.18;;
65558;SDS011;52203;51.998;5.140;2023-07-20T04:45:49;9.90;;;5.65;;
65558;SDS011;52203;51.998;5.140;2023-07-20T04:48:15;11.27;;;6.45;;
65558;SDS011;52203;51.998;5.140;2023-07-20T04:50:43;9.02;;;5.78;;
65558;SDS011;52203;51.998;5.140;2023-07-20T04:53:10;9.70;;;5.68;;
65558;SDS011;52203;51.998;5.140;2023-07-20T04:55:39;10.73;;;6.20;;
65558;SDS011;52203;51.998;5.140;2023-07-20T04:58:05;10.27;;;5.97;;
65558;SDS011;52203;51.998;5.140;2023-07-20T05:00:34;8.57;;;5.65;;
65558;SDS011;52203;51.998;5.140;2023-07-20T05:02:59;9.23;;;5.55;;
65558;SDS011;52203;51.998;5.140;2023-07-20T05:05:25;9.32;;;5.97;;
65558;SDS011;52203;51.998;5.140;2023-07-20T05:07:51;7.95;;;5.57;;
65558;SDS011;52203;51.998;5.140;2023-07-20T05:10:16;9.85;;;5.78;;
65558;SDS011;52203;51.998;5.140;2023-07-20T05:12:42;8.77;;;5.68;;
65558;SDS011;52203;51.998;5.140;2023-07-20T05:15:08;8.32;;;5.45;;
65558;SDS011;52203;51.998;5.140;2023-07-20T05:17:34;8.05;;;5.30;;
65558;SDS011;52203;51.998;5.140;2023-07-20T05:19:59;7.18;;;4.88;;
65558;SDS011;52203;51.998;5.140;2023-07-20T05:22:25;7.78;;;5.07;;
65558;SDS011;52203;51.998;5.140;2023-07-20T05:24:50;6.78;;;4.30;;
65558;SDS011;52203;51.998;5.140;2023-07-20T05:27:16;7.22;;;4.70;;
65558;SDS011;52203;51.998;5.140;2023-07-20T05:29:45;7.22;;;4.28;;
65558;SDS011;52203;51.998;5.140;2023-07-20T05:32:11;6.40;;;4.53;;
65558;SDS011;52203;51.998;5.140;2023-07-20T05:34:37;6.55;;;4.18;;
65558;SDS011;52203;51.998;5.140;2023-07-20T05:37:02;5.13;;;3.72;;
65558;SDS011;52203;51.998;5.140;2023-07-20T05:39:28;4.35;;;2.83;;
65558;SDS011;52203;51.998;5.140;2023-07-20T05:41:53;4.28;;;3.00;;
65558;SDS011;52203;51.998;5.140;2023-07-20T05:44:19;5.93;;;3.40;;
65558;SDS011;52203;51.998;5.140;2023-07-20T05:46:45;5.47;;;2.42;;
65558;SDS011;52203;51.998;5.140;2023-07-20T05:49:11;4.55;;;2.65;;
65558;SDS011;52203;51.998;5.140;2023-07-20T05:51:36;4.68;;;2.55;;
65558;SDS011;52203;51.998;5.140;2023-07-20T05:54:02;5.03;;;2.75;;
65558;SDS011;52203;51.998;5.140;2023-07-20T05:56:27;3.83;;;2.50;;
65558;SDS011;52203;51.998;5.140;2023-07-20T05:58:53;4.03;;;2.47;;
65558;SDS011;52203;51.998;5.140;2023-07-20T06:01:19;3.50;;;2.30;;
65558;SDS011;52203;51.998;5.140;2023-07-20T06:03:44;4.55;;;2.35;;
65558;SDS011;52203;51.998;5.140;2023-07-20T06:06:10;8.82;;;2.60;;
65558;SDS011;52203;51.998;5.140;2023-07-20T06:08:37;3.40;;;2.20;;
65558;SDS011;52203;51.998;5.140;2023-07-20T06:11:03;5.32;;;2.70;;
65558;SDS011;52203;51.998;5.140;2023-07-20T06:13:29;3.17;;;2.10;;
65558;SDS011;52203;51.998;5.140;2023-07-20T06:15:54;3.15;;;2.17;;
65558;SDS011;52203;51.998;5.140;2023-07-20T06:18:23;4.40;;;2.30;;
65558;SDS011;52203;51.998;5.140;2023-07-20T06:20:49;4.50;;;2.28;;
65558;SDS011;52203;51.998;5.140;2023-07-20T06:23:15;3.97;;;1.98;;
65558;SDS011;52203;51.998;5.140;2023-07-20T06:25:41;3.60;;;1.98;;
65558;SDS011;52203;51.998;5.140;2023-07-20T06:28:07;2.83;;;1.70;;
65558;SDS011;52203;51.998;5.140;2023-07-20T06:30:33;3.50;;;1.85;;
65558;SDS011;52203;51.998;5.140;2023-07-20T06:33:00;2.63;;;1.80;;
65558;SDS011;52203;51.998;5.140;2023-07-20T06:35:25;3.08;;;1.70;;
65558;SDS011;52203;51.998;5.140;2023-07-20T06:37:51;3.03;;;1.70;;
65558;SDS011;52203;51.998;5.140;2023-07-20T06:40:17;4.47;;;1.95;;
65558;SDS011;52203;51.998;5.140;2023-07-20T06:42:43;2.70;;;1.63;;
65558;SDS011;52203;51.998;5.140;2023-07-20T06:45:08;3.60;;;1.75;;
65558;SDS011;52203;51.998;5.140;2023-07-20T06:47:34;3.20;;;1.77;;
65558;SDS011;52203;51.998;5.140;2023-07-20T06:50:04;2.70;;;1.40;;
65558;SDS011;52203;51.998;5.140;2023-07-20T06:52:33;2.40;;;1.50;;
65558;SDS011;52203;51.998;5.140;2023-07-20T06:55:02;1.88;;;1.10;;
65558;SDS011;52203;51.998;5.140;2023-07-20T06:57:28;2.88;;;1.00;;
65558;SDS011;52203;51.998;5.140;2023-07-20T06:59:54;1.60;;;1.05;;
65558;SDS011;52203;51.998;5.140;2023-07-20T07:02:19;1.92;;;1.27;;
65558;SDS011;52203;51.998;5.140;2023-07-20T07:04:45;2.63;;;1.17;;
65558;SDS011;52203;51.998;5.140;2023-07-20T07:07:13;2.65;;;1.30;;
65558;SDS011;52203;51.998;5.140;2023-07-20T07:09:39;3.58;;;1.52;;
65558;SDS011;52203;51.998;5.140;2023-07-20T07:12:05;3.42;;;1.40;;
65558;SDS011;52203;51.998;5.140;2023-07-20T07:14:31;2.13;;;1.55;;
65558;SDS011;52203;51.998;5.140;2023-07-20T07:16:57;2.38;;;1.20;;
65558;SDS011;52203;51.998;5.140;2023-07-20T07:19:22;3.28;;;1.48;;
65558;SDS011;52203;51.998;5.140;2023-07-20T07:21:48;3.85;;;1.27;;
65558;SDS011;52203;51.998;5.140;2023-07-20T07:24:13;3.20;;;1.10;;
65558;SDS011;52203;51.998;5.140;2023-07-20T07:26:39;2.83;;;1.13;;
65558;SDS011;52203;51.998;5.140;2023-07-20T07:29:08;1.50;;;1.00;;
65558;SDS011;52203;51.998;5.140;2023-07-20T07:31:34;2.00;;;1.13;;
65558;SDS011;52203;51.998;5.140;2023-07-20T07:34:01;2.72;;;1.27;;
65558;SDS011;52203;51.998;5.140;2023-07-20T07:36:27;2.78;;;1.20;;
65558;SDS011;52203;51.998;5.140;2023-07-20T07:38:53;1.92;;;1.13;;
65558;SDS011;52203;51.998;5.140;2023-07-20T07:41:18;2.78;;;1.00;;
65558;SDS011;52203;51.998;5.140;2023-07-20T07:43:44;1.52;;;0.90;;
65558;SDS011;52203;51.998;5.140;2023-07-20T07:46:09;1.58;;;1.00;;
65558;SDS011;52203;51.998;5.140;2023-07-20T07:48:35;1.83;;;0.90;;
65558;SDS011;52203;51.998;5.140;2023-07-20T07:51:00;1.30;;;0.90;;
65558;SDS011;52203;51.998;5.140;2023-07-20T07:53:26;2.22;;;1.00;;
65558;SDS011;52203;51.998;5.140;2023-07-20T07:55:52;2.85;;;1.08;;
65558;SDS011;52203;51.998;5.140;2023-07-20T07:58:18;1.83;;;1.35;;
65558;SDS011;52203;51.998;5.140;2023-07-20T08:00:43;2.97;;;1.10;;
65558;SDS011;52203;51.998;5.140;2023-07-20T08:03:09;1.50;;;0.98;;
65558;SDS011;52203;51.998;5.140;2023-07-20T08:05:35;2.75;;;1.10;;
65558;SDS011;52203;51.998;5.140;2023-07-20T08:08:01;3.75;;;1.10;;
65558;SDS011;52203;51.998;5.140;2023-07-20T08:10:28;2.40;;;1.00;;
65558;SDS011;52203;51.998;5.140;2023-07-20T08:12:54;3.22;;;1.10;;
65558;SDS011;52203;51.998;5.140;2023-07-20T08:15:20;1.90;;;1.10;;
65558;SDS011;52203;51.998;5.140;2023-07-20T08:17:46;2.10;;;0.90;;
65558;SDS011;52203;51.998;5.140;2023-07-20T08:20:14;2.25;;;1.40;;
65558;SDS011;52203;51.998;5.140;2023-07-20T08:22:42;2.42;;;1.45;;
65558;SDS011;52203;51.998;5.140;2023-07-20T08:25:08;2.67;;;1.10;;
65558;SDS011;52203;51.998;5.140;2023-07-20T08:27:34;1.65;;;1.00;;
65558;SDS011;52203;51.998;5.140;2023-07-20T08:30:00;1.67;;;0.80;;
65558;SDS011;52203;51.998;5.140;2023-07-20T08:32:26;2.67;;;1.15;;
65558;SDS011;52203;51.998;5.140;2023-07-20T08:34:51;1.75;;;0.88;;
65558;SDS011;52203;51.998;5.140;2023-07-20T08:37:17;3.40;;;0.95;;
65558;SDS011;52203;51.998;5.140;2023-07-20T08:39:43;1.67;;;0.75;;
65558;SDS011;52203;51.998;5.140;2023-07-20T08:42:09;2.10;;;0.90;;
65558;SDS011;52203;51.998;5.140;2023-07-20T08:44:36;1.45;;;0.80;;
65558;SDS011;52203;51.998;5.140;2023-07-20T08:47:03;1.30;;;0.70;;
65558;SDS011;52203;51.998;5.140;2023-07-20T08:49:31;1.65;;;0.88;;
65558;SDS011;52203;51.998;5.140;2023-07-20T08:51:57;1.52;;;0.90;;
65558;SDS011;52203;51.998;5.140;2023-07-20T08:54:24;0.88;;;0.80;;
65558;SDS011;52203;51.998;5.140;2023-07-20T08:56:57;1.25;;;0.80;;
65558;SDS011;52203;51.998;5.140;2023-07-20T08:59:26;1.45;;;0.80;;
65558;SDS011;52203;51.998;5.140;2023-07-20T09:01:54;1.35;;;0.90;;
65558;SDS011;52203;51.998;5.140;2023-07-20T09:04:22;2.55;;;1.00;;
65558;SDS011;52203;51.998;5.140;2023-07-20T09:06:48;1.98;;;0.80;;
65558;SDS011;52203;51.998;5.140;2023-07-20T09:09:14;2.80;;;0.90;;
65558;SDS011;52203;51.998;5.140;2023-07-20T09:11:40;1.35;;;0.70;;
65558;SDS011;52203;51.998;5.140;2023-07-20T09:14:06;2.88;;;0.70;;
65558;SDS011;52203;51.998;5.140;2023-07-20T09:16:32;1.02;;;0.60;;
65558;SDS011;52203;51.998;5.140;2023-07-20T09:19:14;2.13;;;0.80;;
65558;SDS011;52203;51.998;5.140;2023-07-20T09:21:40;2.03;;;0.82;;
65558;SDS011;52203;51.998;5.140;2023-07-20T09:24:05;1.92;;;0.80;;
65558;SDS011;52203;51.998;5.140;2023-07-20T09:26:32;3.63;;;0.75;;
65558;SDS011;52203;51.998;5.140;2023-07-20T09:29:07;0.95;;;0.70;;
65558;SDS011;52203;51.998;5.140;2023-07-20T09:31:34;1.05;;;0.80;;
65558;SDS011;52203;51.998;5.140;2023-07-20T09:33:59;2.47;;;0.70;;
65558;SDS011;52203;51.998;5.140;2023-07-20T09:36:28;1.73;;;0.90;;
65558;SDS011;52203;51.998;5.140;2023-07-20T09:38:53;1.42;;;0.70;;
65558;SDS011;52203;51.998;5.140;2023-07-20T09:41:20;1.40;;;0.80;;
65558;SDS011;52203;51.998;5.140;2023-07-20T09:43:46;1.90;;;0.90;;
65558;SDS011;52203;51.998;5.140;2023-07-20T09:46:12;2.22;;;0.70;;
65558;SDS011;52203;51.998;5.140;2023-07-20T09:48:38;1.48;;;0.85;;
65558;SDS011;52203;51.998;5.140;2023-07-20T09:51:04;1.45;;;0.70;;
65558;SDS011;52203;51.998;5.140;2023-07-20T09:53:32;1.02;;;0.73;;
65558;SDS011;52203;51.998;5.140;2023-07-20T09:55:59;1.73;;;0.88;;
65558;SDS011;52203;51.998;5.140;2023-07-20T09:58:26;1.63;;;0.93;;
65558;SDS011;52203;51.998;5.140;2023-07-20T10:00:52;1.75;;;0.80;;
65558;SDS011;52203;51.998;5.140;2023-07-20T10:03:22;1.63;;;0.80;;
65558;SDS011;52203;51.998;5.140;2023-07-20T10:05:56;1.58;;;0.80;;
65558;SDS011;52203;51.998;5.140;2023-07-20T10:08:28;1.42;;;0.90;;
65558;SDS011;52203;51.998;5.140;2023-07-20T10:10:57;1.58;;;0.85;;
65558;SDS011;52203;51.998;5.140;2023-07-20T10:13:26;1.98;;;0.77;;
65558;SDS011;52203;51.998;5.140;2023-07-20T10:15:54;1.67;;;1.02;;
65558;SDS011;52203;51.998;5.140;2023-07-20T10:18:38;1.13;;;0.82;;
65558;SDS011;52203;51.998;5.140;2023-07-20T10:21:41;1.17;;;0.80;;
65558;SDS011;52203;51.998;5.140;2023-07-20T10:24:12;1.35;;;1.00;;
65558;SDS011;52203;51.998;5.140;2023-07-20T10:26:38;1.05;;;0.85;;
65558;SDS011;52203;51.998;5.140;2023-07-20T10:29:04;1.17;;;0.80;;
65558;SDS011;52203;51.998;5.140;2023-07-20T10:31:30;2.22;;;1.00;;
65558;SDS011;52203;51.998;5.140;2023-07-20T10:33:57;1.55;;;0.95;;
65558;SDS011;52203;51.998;5.140;2023-07-20T10:36:27;1.88;;;1.00;;
65558;SDS011;52203;51.998;5.140;2023-07-20T10:38:53;1.60;;;0.90;;
65558;SDS011;52203;51.998;5.140;2023-07-20T10:41:21;5.32;;;1.33;;
65558;SDS011;52203;51.998;5.140;2023-07-20T10:43:57;2.42;;;1.00;;
65558;SDS011;52203;51.998;5.140;2023-07-20T10:49:09;1.92;;;0.90;;
65558;SDS011;52203;51.998;5.140;2023-07-20T10:51:55;1.98;;;0.90;;
65558;SDS011;52203;51.998;5.140;2023-07-20T10:56:48;0.88;;;0.77;;
65558;SDS011;52203;51.998;5.140;2023-07-20T11:01:44;1.98;;;1.10;;
65558;SDS011;52203;51.998;5.140;2023-07-20T11:04:10;2.75;;;1.00;;
65558;SDS011;52203;51.998;5.140;2023-07-20T11:06:36;1.45;;;0.90;;
65558;SDS011;52203;51.998;5.140;2023-07-20T11:11:43;1.27;;;0.98;;
65558;SDS011;52203;51.998;5.140;2023-07-20T11:14:10;2.08;;;1.25;;
65558;SDS011;52203;51.998;5.140;2023-07-20T11:16:45;1.98;;;1.20;;
65558;SDS011;52203;51.998;5.140;2023-07-20T11:19:22;2.40;;;1.20;;
65558;SDS011;52203;51.998;5.140;2023-07-20T11:24:21;1.88;;;1.05;;
65558;SDS011;52203;51.998;5.140;2023-07-20T11:26:47;1.38;;;0.90;;
65558;SDS011;52203;51.998;5.140;2023-07-20T11:29:15;2.15;;;1.27;;
65558;SDS011;52203;51.998;5.140;2023-07-20T11:31:42;2.00;;;1.13;;
65558;SDS011;52203;51.998;5.140;2023-07-20T11:34:12;1.55;;;0.90;;
65558;SDS011;52203;51.998;5.140;2023-07-20T11:36:39;2.38;;;1.20;;
65558;SDS011;52203;51.998;5.140;2023-07-20T11:41:43;1.75;;;1.00;;
65558;SDS011;52203;51.998;5.140;2023-07-20T11:44:12;2.08;;;1.10;;
65558;SDS011;52203;51.998;5.140;2023-07-20T11:46:40;2.55;;;1.40;;
65558;SDS011;52203;51.998;5.140;2023-07-20T11:49:07;2.83;;;1.23;;
65558;SDS011;52203;51.998;5.140;2023-07-20T11:51:33;2.42;;;1.30;;
65558;SDS011;52203;51.998;5.140;2023-07-20T11:54:00;2.03;;;1.30;;
65558;SDS011;52203;51.998;5.140;2023-07-20T11:56:27;2.03;;;1.05;;
65558;SDS011;52203;51.998;5.140;2023-07-20T11:58:56;3.03;;;1.60;;
65558;SDS011;52203;51.998;5.140;2023-07-20T12:01:24;3.85;;;1.30;;
65558;SDS011;52203;51.998;5.140;2023-07-20T12:03:54;1.80;;;1.20;;
65558;SDS011;52203;51.998;5.140;2023-07-20T12:06:25;2.15;;;1.10;;
65558;SDS011;52203;51.998;5.140;2023-07-20T12:08:54;1.95;;;1.10;;
65558;SDS011;52203;51.998;5.140;2023-07-20T12:14:00;1.80;;;1.23;;
65558;SDS011;52203;51.998;5.140;2023-07-20T12:16:27;1.80;;;1.02;;
65558;SDS011;52203;51.998;5.140;2023-07-20T12:19:00;2.63;;;1.30;;
65558;SDS011;52203;51.998;5.140;2023-07-20T12:21:27;3.15;;;1.20;;
65558;SDS011;52203;51.998;5.140;2023-07-20T12:23:53;1.83;;;1.25;;
65558;SDS011;52203;51.998;5.140;2023-07-20T12:26:20;2.50;;;1.23;;
65558;SDS011;52203;51.998;5.140;2023-07-20T12:28:48;2.80;;;1.20;;
65558;SDS011;52203;51.998;5.140;2023-07-20T12:31:14;2.17;;;1.20;;
65558;SDS011;52203;51.998;5.140;2023-07-20T12:33:40;1.20;;;1.00;;
65558;SDS011;52203;51.998;5.140;2023-07-20T12:36:08;2.00;;;1.20;;
65558;SDS011;52203;51.998;5.140;2023-07-20T12:38:34;2.03;;;1.10;;
65558;SDS011;52203;51.998;5.140;2023-07-20T12:41:01;1.70;;;0.90;;
65558;SDS011;52203;51.998;5.140;2023-07-20T12:43:27;2.83;;;1.45;;
65558;SDS011;52203;51.998;5.140;2023-07-20T12:45:54;2.60;;;1.33;;
65558;SDS011;52203;51.998;5.140;2023-07-20T12:48:20;2.28;;;1.00;;
65558;SDS011;52203;51.998;5.140;2023-07-20T12:50:45;2.10;;;1.10;;
65558;SDS011;52203;51.998;5.140;2023-07-20T12:53:11;2.20;;;1.30;;
65558;SDS011;52203;51.998;5.140;2023-07-20T12:55:37;1.95;;;1.30;;
65558;SDS011;52203;51.998;5.140;2023-07-20T12:58:06;2.05;;;1.20;;
65558;SDS011;52203;51.998;5.140;2023-07-20T13:00:32;2.70;;;1.40;;
65558;SDS011;52203;51.998;5.140;2023-07-20T13:02:58;1.98;;;1.05;;
65558;SDS011;52203;51.998;5.140;2023-07-20T13:05:23;1.42;;;1.00;;
65558;SDS011;52203;51.998;5.140;2023-07-20T13:07:49;1.40;;;1.10;;
65558;SDS011;52203;51.998;5.140;2023-07-20T13:10:15;2.42;;;1.27;;
65558;SDS011;52203;51.998;5.140;2023-07-20T13:12:41;2.40;;;1.30;;
65558;SDS011;52203;51.998;5.140;2023-07-20T13:15:07;2.40;;;1.50;;
65558;SDS011;52203;51.998;5.140;2023-07-20T13:17:38;2.55;;;1.40;;
65558;SDS011;52203;51.998;5.140;2023-07-20T13:20:04;4.00;;;1.58;;
65558;SDS011;52203;51.998;5.140;2023-07-20T13:22:32;2.63;;;1.60;;
65558;SDS011;52203;51.998;5.140;2023-07-20T13:24:58;3.20;;;1.73;;
65558;SDS011;52203;51.998;5.140;2023-07-20T13:27:23;4.07;;;1.30;;
65558;SDS011;52203;51.998;5.140;2023-07-20T13:29:51;2.55;;;1.55;;
65558;SDS011;52203;51.998;5.140;2023-07-20T13:32:17;2.90;;;1.88;;
65558;SDS011;52203;51.998;5.140;2023-07-20T13:34:45;2.75;;;1.40;;
65558;SDS011;52203;51.998;5.140;2023-07-20T13:37:11;2.05;;;1.45;;
65558;SDS011;52203;51.998;5.140;2023-07-20T13:39:37;2.28;;;1.40;;
65558;SDS011;52203;51.998;5.140;2023-07-20T13:42:04;4.07;;;1.70;;
65558;SDS011;52203;51.998;5.140;2023-07-20T13:44:30;2.78;;;1.33;;
65558;SDS011;52203;51.998;5.140;2023-07-20T13:46:56;1.90;;;1.25;;
65558;SDS011;52203;51.998;5.140;2023-07-20T13:49:22;2.10;;;1.08;;
65558;SDS011;52203;51.998;5.140;2023-07-20T13:51:48;1.83;;;0.93;;
65558;SDS011;52203;51.998;5.140;2023-07-20T13:54:15;2.45;;;1.23;;
65558;SDS011;52203;51.998;5.140;2023-07-20T13:56:40;3.63;;;1.35;;
65558;SDS011;52203;51.998;5.140;2023-07-20T13:59:06;2.05;;;1.17;;
65558;SDS011;52203;51.998;5.140;2023-07-20T14:01:31;2.78;;;1.20;;
65558;SDS011;52203;51.998;5.140;2023-07-20T14:04:01;2.15;;;1.30;;
65558;SDS011;52203;51.998;5.140;2023-07-20T14:06:31;2.25;;;1.20;;
65558;SDS011;52203;51.998;5.140;2023-07-20T14:08:57;1.95;;;1.15;;
65558;SDS011;52203;51.998;5.140;2023-07-20T14:11:24;2.28;;;1.30;;
65558;SDS011;52203;51.998;5.140;2023-07-20T14:13:49;2.40;;;1.50;;
65558;SDS011;52203;51.998;5.140;2023-07-20T14:16:16;3.13;;;1.50;;
65558;SDS011;52203;51.998;5.140;2023-07-20T14:18:41;1.77;;;1.20;;
65558;SDS011;52203;51.998;5.140;2023-07-20T14:21:07;2.22;;;1.20;;
65558;SDS011;52203;51.998;5.140;2023-07-20T14:23:33;3.10;;;1.27;;
65558;SDS011;52203;51.998;5.140;2023-07-20T14:25:58;3.15;;;1.40;;
65558;SDS011;52203;51.998;5.140;2023-07-20T14:28:24;2.03;;;1.20;;
65558;SDS011;52203;51.998;5.140;2023-07-20T14:30:50;1.88;;;1.02;;
65558;SDS011;52203;51.998;5.140;2023-07-20T14:33:15;2.58;;;1.13;;
65558;SDS011;52203;51.998;5.140;2023-07-20T14:35:41;1.83;;;1.08;;
65558;SDS011;52203;51.998;5.140;2023-07-20T14:38:06;2.80;;;1.17;;
65558;SDS011;52203;51.998;5.140;2023-07-20T14:40:32;3.03;;;1.20;;
65558;SDS011;52203;51.998;5.140;2023-07-20T14:42:57;3.20;;;1.50;;
65558;SDS011;52203;51.998;5.140;2023-07-20T14:45:25;1.85;;;1.10;;
65558;SDS011;52203;51.998;5.140;2023-07-20T14:47:52;2.95;;;1.40;;
65558;SDS011;52203;51.998;5.140;2023-07-20T14:50:19;3.03;;;1.35;;
65558;SDS011;52203;51.998;5.140;2023-07-20T14:52:45;1.85;;;1.30;;
65558;SDS011;52203;51.998;5.140;2023-07-20T14:55:11;3.10;;;1.60;;
65558;SDS011;52203;51.998;5.140;2023-07-20T14:57:36;2.17;;;1.55;;
65558;SDS011;52203;51.998;5.140;2023-07-20T15:00:03;2.05;;;1.00;;
65558;SDS011;52203;51.998;5.140;2023-07-20T15:02:35;1.88;;;1.15;;
65558;SDS011;52203;51.998;5.140;2023-07-20T15:05:06;2.42;;;1.23;;
65558;SDS011;52203;51.998;5.140;2023-07-20T15:07:32;2.15;;;1.10;;
65558;SDS011;52203;51.998;5.140;2023-07-20T15:09:58;1.30;;;1.00;;